Jackson, MS

9:12 PM CST on November 23, 2014 (GMT -0600)
Hawkins | Change Station
CLOSE
Current Station
Airport
Location: Jackson Hawkins Field,
Elevation: 341 ft
Nearby Weather Stations

Elev 341 ft 32.33 °N, 90.22 °W | Updated 19 minutes ago

Clear
Clear
64 °F
Feels Like 64 °F
N
14
Wind Variable Wind from SSW
Gusts 21 mph

Today
High -- | Low -- °F
--% Chance of Precip.
Yesterday
High -- | Low -- °F
Precip. -- in
6:37 AM 4:56 PM
Waxing Crescent, 3% visible
Pressure 29.59 in
Visibility 10.0 miles
Clouds Clear
Dew Point 56 °F
Humidity 75%
Rainfall 0.22 in
Snow Depth Not available.
UV 0 out of 12
Pollen .10 out of 12
Air Quality Not available.
Flu Activity Not available.
METAR KHKS 240253Z 20012G18KT 10SM CLR 18/13 A2961 RMK AO2 SLP018 T01780133 51020

More Conditions Fewer Conditions

Pressure 29.59 in
Visibility 10.0 miles
Clouds Clear
Dew Point 56 °F
Humidity 75%
Rainfall 0.22 in
Snow Depth Not available.
UV 0 out of 12
Pollen .10 out of 12
Air Quality Not available.
Flu Activity Not available.
METAR KHKS 240253Z 20012G18KT 10SM CLR 18/13 A2961 RMK AO2 SLP018 T01780133 51020

More Conditions Fewer Conditions

10-Day Weather Forecast

Almanac

Astronomy

Nov. 23, 2014 Rise Set
Actual Time
Civil Twilight
Nautical Twilight
Astronomical Twilight
Moon
Length of Visible Light
Length of Day
Tomorrow will be .
, % of the Moon is Illuminated

Today's Extremes

State Highs State Lows

Community

WunderPhotos

Upload Photos

1,773,257 photos uploaded!

WunderBlogs® & News

Nearby

Air Quality

  Air Quality AQ Index Pollutant
Not available.

Snow Depth

Station Depth Elevation

Earthquake Activity

City Distance Mag. Time & Date
Minimum magnitude displayed is 2.5.

Coastal Water Temperatures

Place Temperature

Nearby Weather Stations